Have a Safe July 4th! 

Flight Track Log - Related Links

Times and Time Zones

All times are in EST time to prevent confusion due to time zone crossing. See the SLI2311 flight status page for this flight to view local times or setup timezone preferences in your user account.

Time Position Orientation Groundspeed Altitude Reporting Facility
EST Latitude Longitude Course Direction KTS MPH feet Rate Location/Type
Tue 07:28:00 PM 24.4340 -108.8869 256° West  Level Estimated
Tue 07:29:00 PM 24.4171 -108.9573 255° West  Level Estimated
Tue 07:30:00 PM 24.4002 -109.0277 255° West  Level Estimated
Tue 07:31:00 PM 24.3833 -109.0981 255° West  Level Estimated
Tue 07:32:00 PM 24.3663 -109.1684 255° West  Level Estimated
Tue 07:33:00 PM 24.3493 -109.2388 255° West  Level Estimated
Tue 07:34:00 PM 24.3323 -109.3091 255° West  Level Estimated
Tue 07:35:00 PM 24.3152 -109.3794 255° West  Level Estimated
Tue 07:36:00 PM 24.2981 -109.4497 255° West  Level Estimated
Tue 07:37:00 PM 24.2810 -109.5200 255° West  Level Estimated
Tue 07:38:00 PM 24.2638 -109.5902 255° West  Level Estimated
Tue 07:39:00 PM 24.2466 -109.6604 255° West  Level Estimated
Tue 07:40:00 PM 24.2294 -109.7306 255° West  Level Estimated
Tue 07:41:00 PM 24.2122 -109.8008 255° West  Level Estimated
Tue 07:42:00 PM 24.1949 -109.8710 255° West  Level Estimated
Tue 07:43:00 PM 24.1775 -109.9411 255° West  Level Estimated
Tue 07:44:00 PM 24.1602 -110.0113 255° West  Level Estimated
Tue 07:45:00 PM 24.1428 -110.0814 255° West  Level Estimated
Tue 07:46:00 PM 24.1254 -110.1515 255° West  Level Estimated
Tue 07:47:00 PM 24.1079 -110.2215 255° West  Level Estimated
Tue 07:48:00 PM 24.0904 -110.2916 255° West  Level Estimated
Tue 07:49:00 PM 24.0729 -110.3616 255° West  Level Estimated
Tue 07:50:00 PM 24.0727 -110.3625 255° West  Level Estimated
Tue 07:51:00 PM 24.0727 -110.3625 49° Northeast  Level Estimated
Tue 07:52:00 PM 24.0727 -110.3625 49° Northeast  Level Estimated
Tue 07:53:00 PM 24.0727 -110.3625 49° Northeast  Level Estimated
Tue 07:54:00 PM 24.0727 -110.3625 49° Northeast  Level Estimated
Tue 07:55:00 PM 24.0727 -110.3625 49° Northeast  Level Estimated
Tue 07:56:00 PM 24.0727 -110.3625 49° Northeast  Level Estimated
Tue 07:57:00 PM 24.0727 -110.3625 49° Northeast  Level Estimated
Tue 07:58:00 PM 24.0727 -110.3625 49° Northeast  Level Estimated
Tue 07:59:00 PM 24.0727 -110.3625 49° Northeast  Level Estimated
Tue 08:00:00 PM 24.0727 -110.3625 49° Northeast  Level Estimated
Tue 08:01:00 PM 24.0727 -110.3625 49° Northeast  Level Estimated
Tue 08:02:00 PM 24.0727 -110.3625 49° Northeast  Level Estimated
Tue 08:03:00 PM 24.0727 -110.3625 49° Northeast  Level Estimated
Tue 08:04:00 PM 24.0727 -110.3625 49° Northeast  Level Estimated
Tue 08:05:00 PM 24.0727 -110.3625 49° Northeast  Level Estimated

Login

Don't have an account? Register now (free) for customized features, flight alerts, and more!